createdAt,value
2023-01-19T00:08:02.050Z,48.21
2023-01-19T00:40:31.422Z,48.16
2023-01-19T01:08:49.111Z,48.08
2023-01-19T01:37:28.338Z,48.07
2023-01-19T02:06:06.829Z,48.06
2023-01-19T02:34:45.835Z,48.03
2023-01-19T03:03:32.418Z,47.98
2023-01-19T03:32:21.792Z,47.99
2023-01-19T04:01:00.469Z,47.96
2023-01-19T04:29:38.728Z,47.91
2023-01-19T04:58:24.928Z,47.92
2023-01-19T05:27:05.731Z,47.87
2023-01-19T05:55:54.230Z,48.68
2023-01-19T06:24:39.233Z,49.24
2023-01-19T06:53:19.865Z,48.53
2023-01-19T07:21:55.588Z,48.44
2023-01-19T07:50:33.188Z,48.53
2023-01-19T08:19:07.661Z,48.28
2023-01-19T08:47:45.054Z,49.07
2023-01-19T09:16:19.820Z,49.8
2023-01-19T09:44:57.415Z,50.31
2023-01-19T10:13:38.943Z,50.05
2023-01-19T10:42:21.978Z,49.49
2023-01-19T11:11:06.692Z,49.38
2023-01-19T11:39:43.187Z,49.27
2023-01-19T12:08:27.705Z,50.2
2023-01-19T12:37:02.737Z,50.67
2023-01-19T13:05:37.371Z,49.56
2023-01-19T13:34:06.533Z,48.97
2023-01-19T14:02:44.161Z,48.71
2023-01-19T14:31:18.325Z,48.5
2023-01-19T14:59:52.705Z,48.35
2023-01-19T15:28:30.059Z,48.19
2023-01-19T15:56:55.811Z,47.86
2023-01-19T16:25:36.496Z,47.95
2023-01-19T16:54:09.573Z,47.93
2023-01-19T17:22:50.706Z,47.91
2023-01-19T17:51:27.059Z,47.74
2023-01-19T18:20:09.120Z,47.75
2023-01-19T18:48:49.676Z,47.7
2023-01-19T19:17:11.170Z,47.66
2023-01-19T19:45:51.728Z,47.63
2023-01-19T20:14:32.141Z,47.6
2023-01-19T20:43:12.679Z,47.57
2023-01-19T21:11:52.300Z,47.52
2023-01-19T21:40:34.065Z,47.5
2023-01-19T22:09:00.893Z,47.47
2023-01-19T22:37:42.313Z,47.46
2023-01-19T23:06:22.229Z,47.44
2023-01-19T23:35:02.383Z,47.41
